Terminal Aerodrome Forecast
Issued by NWS Charleston, WV

Current Version | Previous Version | Graphics & Text | Print | Product List | Glossary On
Versions: 1 2 3 4 5 6 7 8 9 10 11 12 13 14 15 16 17 18 19 20 21 22 23 24
000
FTUS41 KRLX 230242 AAA
TAFCRW
TAF AMD
KCRW 230242Z 2303/2324 36002KT 6SM BR VCSH BKN060
     FM230500 00000KT 5SM BR BKN070
     FM230800 00000KT 2SM BR SCT001 BKN060
     FM230900 00000KT 1SM BR BKN001
     FM231200 00000KT 4SM BR BKN060
     FM231300 34003KT P6SM SCT070=

USA.gov is the U.S. government's official web portal to all federal, state and local government web resources and services.